• Join FlightAware (Why Join?)
  • Login
  • US Flag 
02:09PM EDT


 

Airport Tracker/Info


-or-


 

Live Flight TrackerFlight Track Log ✈ SWA1535 ✈ 19-Apr-2013 ✈ KMCO - KSTL

Flight Track Log - Related Links

Times and Time Zones

All times are in EDT time to prevent confusion due to time zone crossing. See the SWA1535 flight status page for this flight to view local times or setup timezone preferences in your user account.

Time Position Orientation Groundspeed Altitude Reporting Facility
EDT Latitude Longitude Course Direction KTS MPH feet Rate Location/Type
04:42PM 28.4167 -81.3167 199° South 142 163 1,000  Level Orlando TRACON
04:44PM 28.3333 -81.3500 199° South 231 266 4,500 2,640 Climbing Orlando TRACON
04:45PM 28.2833 -81.3833 210° Southwest 266 306 7,400 2,940 Climbing Orlando TRACON
04:47PM 28.2136 -81.5122 238° Southwest 272 313 12,600 2,820 Climbing Jacksonville Center
04:48PM 28.2269 -81.6086 279° West 267 307 15,500 1,680 Climbing Jacksonville Center
04:49PM 28.2383 -81.7144 277° West 296 341 16,000 240 Climbing Jacksonville Center
04:50PM 28.2708 -81.8297 288° West 358 412 16,000 960 Level Jacksonville Center
04:51PM 28.3050 -81.9447 289° West 374 430 18,000 2,400 Climbing Jacksonville Center
04:52PM 28.3350 -82.0553 287° West 396 456 20,900 2,580 Climbing Jacksonville Center
04:53PM 28.3669 -82.1731 287° West 401 461 23,200 1,980 Climbing Jacksonville Center
04:54PM 28.4031 -82.2931 289° West 401 461 24,900 1,380 Climbing Jacksonville Center
04:55PM 28.4411 -82.4156 289° West 401 461 26,000 840 Climbing Jacksonville Center
04:56PM 28.4769 -82.5383 288° West 406 467 26,600 1,020 Climbing Jacksonville Center
04:57PM 28.5669 -82.6278 319° Northwest 412 474 28,100 2,040 Climbing Jacksonville Center
04:58PM 28.6714 -82.6986 329° Northwest 412 474 30,700 2,400 Climbing Jacksonville Center
04:59PM 28.7633 -82.7669 327° Northwest 412 474 32,900 1,740 Climbing Jacksonville Center
05:00PM 28.8594 -82.8356 328° Northwest 406 467 34,200 1,320 Climbing Jacksonville Center
05:01PM 28.9556 -82.9069 327° Northwest 406 467 35,600 900 Climbing Jacksonville Center
05:02PM 29.0536 -82.9758 328° Northwest 411 473 36,000 180 Climbing Jacksonville Center
05:03PM 29.1494 -83.0447 328° Northwest 411 473 36,000  Level Jacksonville Center
05:04PM 29.2433 -83.1164 326° Northwest 411 473 36,000  Level Jacksonville Center
05:05PM 29.3433 -83.1856 329° Northwest 411 473 36,000  Level Jacksonville Center
05:06PM 29.4350 -83.2575 326° Northwest 411 473 36,100 600 Climbing Jacksonville Center
05:07PM 29.5350 -83.3294 328° Northwest 411 473 37,300 900 Climbing Jacksonville Center
05:08PM 29.6392 -83.4039 328° Northwest 411 473 38,000 300 Climbing Jacksonville Center
05:09PM 29.7222 -83.4906 318° Northwest 406 467 38,000  Level Jacksonville Center
05:10PM 29.8011 -83.5747 317° Northwest 394 453 38,000  Level Jacksonville Center
05:11PM 29.8822 -83.6592 318° Northwest 389 448 38,000  Level Jacksonville Center
05:12PM 29.9631 -83.7436 318° Northwest 394 453 38,000  Level Jacksonville Center
05:13PM 30.0458 -83.8283 318° Northwest 394 453 38,000  Level Jacksonville Center
05:14PM 30.1289 -83.9156 318° Northwest 394 453 38,000  Level Jacksonville Center
05:15PM 30.2200 -83.9936 323° Northwest 399 459 38,000  Level Jacksonville Center
05:16PM 30.3175 -84.0619 329° Northwest 410 472 38,000  Level Jacksonville Center
05:17PM 30.4131 -84.1306 328° Northwest 410 472 38,000  Level Jacksonville Center
05:18PM 30.5000 -84.1922 329° Northwest 405 466 38,000  Level Jacksonville Center
05:19PM 30.6036 -84.2708 327° Northwest 405 466 38,000  Level Jacksonville Center
05:20PM 30.6989 -84.3422 327° Northwest 410 472 38,000  Level Jacksonville Center
05:21PM 30.7961 -84.4114 329° Northwest 410 472 38,000  Level Jacksonville Center
05:22PM 30.8892 -84.4806 327° Northwest 410 472 38,000  Level Jacksonville Center
05:23PM 30.9844 -84.5500 328° Northwest 410 472 38,000  Level Jacksonville Center
05:24PM 31.0775 -84.6197 327° Northwest 410 472 38,000  Level Jacksonville Center
05:26PM 31.2603 -84.7578 327° Northwest 411 473 38,000  Level Atlanta Center
05:27PM 31.3539 -84.8267 328° Northwest 411 473 38,000  Level Atlanta Center
05:28PM 31.4494 -84.8981 327° Northwest 406 467 38,000  Level Atlanta Center
05:29PM 31.5325 -84.9597 328° Northwest 406 467 38,000  Level Atlanta Center
05:30PM 31.6236 -85.0289 327° Northwest 406 467 38,000  Level Atlanta Center
05:31PM 31.7233 -85.1008 328° Northwest 411 473 38,000  Level Atlanta Center
05:32PM 31.8167 -85.1706 328° Northwest 404 465 38,000  Level Atlanta Center
05:33PM 31.9119 -85.2403 328° Northwest 410 472 38,000  Level Atlanta Center
05:34PM 32.0092 -85.3150 327° Northwest 410 472 38,000  Level Atlanta Center
05:35PM 32.1086 -85.3875 328° Northwest 410 472 38,000  Level Atlanta Center
05:36PM 32.2019 -85.4600 327° Northwest 410 472 38,000  Level Atlanta Center
05:37PM 32.3033 -85.5331 329° Northwest 410 472 38,000  Level Atlanta Center
05:38PM 32.4003 -85.6083 327° Northwest 410 472 38,000  Level Atlanta Center
05:39PM 32.4975 -85.6814 328° Northwest 410 472 38,000  Level Atlanta Center
05:40PM 32.5947 -85.7572 327° Northwest 410 472 38,000  Level Atlanta Center
05:41PM 32.6917 -85.8331 327° Northwest 410 472 38,000  Level Atlanta Center
05:42PM 32.7928 -85.9094 328° Northwest 415 478 38,000  Level Atlanta Center
05:43PM 32.8917 -85.9856 327° Northwest 420 483 38,000  Level Atlanta Center
05:44PM 32.9886 -86.0647 326° Northwest 385 443 38,000  Level Atlanta Center
05:45PM 33.0897 -86.1414 328° Northwest 433 498 38,000  Level Atlanta Center
05:46PM 33.1906 -86.2208 327° Northwest 433 498 38,000  Level Atlanta Center
05:47PM 33.2936 -86.2953 329° Northwest 433 498 38,000  Level Atlanta Center
05:48PM 33.3964 -86.3803 325° Northwest 433 498 38,000  Level Atlanta Center
05:49PM 33.5011 -86.4678 325° Northwest 433 498 38,000  Level Atlanta Center
05:50PM 33.6039 -86.5478 327° Northwest 433 498 38,000  Level Atlanta Center
05:51PM 33.7064 -86.6283 327° Northwest 433 498 38,000  Level Atlanta Center
05:52PM 33.8072 -86.7064 327° Northwest 433 498 38,000  Level Atlanta Center
05:53PM 33.9075 -86.7894 326° Northwest 433 498 38,000  Level Atlanta Center
05:55PM 34.1539 -86.9864 327° Northwest 444 511 38,000  Level Memphis Center
05:56PM 34.2542 -87.0678 326° Northwest 442 509 38,000  Level Memphis Center
05:57PM 34.3567 -87.1494 327° Northwest 442 509 38,000  Level Memphis Center
05:58PM 34.4589 -87.2311 327° Northwest 442 509 38,000  Level Memphis Center
05:59PM 34.5419 -87.2986 326° Northwest 442 509 38,000  Level Memphis Center
06:00PM 34.6525 -87.3881 326° Northwest 442 509 38,000  Level Memphis Center
06:01PM 34.7567 -87.4731 326° Northwest 442 509 38,000  Level Memphis Center
06:02PM 34.8608 -87.5556 327° Northwest 456 525 38,000  Level Memphis Center
06:03PM 34.9631 -87.6433 325° Northwest 449 517 38,000  Level Memphis Center
06:04PM 35.0756 -87.7386 325° Northwest 449 517 38,000  Level Memphis Center
06:05PM 35.1731 -87.8167 327° Northwest 459 528 38,000  Level Memphis Center
06:06PM 35.2750 -87.9028 325° Northwest 459 528 38,000 -240 Level Memphis Center
06:07PM 35.3789 -87.9914 325° Northwest 454 522 37,600 -540 Descending Memphis Center
06:08PM 35.4911 -88.0825 327° Northwest 454 522 37,000 -300 Descending Memphis Center
06:09PM 35.5969 -88.1639 328° Northwest 454 522 37,000  Level Memphis Center
06:10PM 35.7028 -88.2531 326° Northwest 454 522 37,000  Level Memphis Center
06:11PM 35.8064 -88.3425 325° Northwest 454 522 37,000  Level Memphis Center
06:12PM 35.9122 -88.4322 326° Northwest 459 528 37,000  Level Memphis Center
06:13PM 36.0136 -88.5197 325° Northwest 454 522 37,000  Level Memphis Center
06:14PM 36.1150 -88.6047 326° Northwest 454 522 37,000  Level Memphis Center
06:15PM 36.2142 -88.6900 325° Northwest 454 522 37,000  Level Memphis Center
06:16PM 36.3153 -88.7781 325° Northwest 449 517 37,000  Level Memphis Center
06:17PM 36.4058 -88.8564 325° Northwest 449 517 37,000  Level Memphis Center
06:18PM 36.5069 -88.9422 326° Northwest 449 517 37,000  Level Memphis Center
06:19PM 36.6081 -89.0283 326° Northwest 449 517 37,000  Level Memphis Center
06:20PM 36.7069 -89.1172 324° Northwest 444 511 37,000  Level Memphis Center
06:21PM 36.8078 -89.2039 325° Northwest 444 511 37,000  Level Memphis Center
06:22PM 36.9064 -89.2931 324° Northwest 444 511 37,000 -1,320 Level Memphis Center
06:24PM 37.1267 -89.4847 325° Northwest 444 511 32,700 -2,280 Descending Kansas City Center
06:25PM 37.2200 -89.5681 325° Northwest 422 486 29,700 -2,340 Descending Kansas City Center
06:26PM 37.3444 -89.6389 336° Northwest 409 471 28,000 -1,380 Descending Kansas City Center
06:27PM 37.4458 -89.6919 337° Northwest 398 458 26,900 -1,080 Descending Kansas City Center
06:28PM 37.5425 -89.7450 336° Northwest 384 442 25,800 -1,560 Descending Kansas City Center
06:29PM 37.6369 -89.7983 336° Northwest 367 422 23,700 -2,040 Descending Kansas City Center
06:30PM 37.7272 -89.8481 336° Northwest 356 410 21,600 -1,740 Descending Kansas City Center
06:31PM 37.8114 -89.8944 336° Northwest 335 386 20,200 -1,980 Descending Kansas City Center
06:32PM 37.8939 -89.8833 North 334 384 17,900 -2,460 Descending FAA TRACON SMA TRACON (SMA)
06:33PM 37.9206 -89.8956 340° North 330 380 17,200 -1,500 Descending FAA TRACON SMA TRACON (SMA)
06:33PM 37.9525 -89.9131 337° Northwest 325 374 16,900 -1,320 Descending FAA TRACON SMA TRACON (SMA)
06:33PM 37.9775 -89.9261 338° Northwest 319 367 16,300 -2,340 Descending FAA TRACON SMA TRACON (SMA)
06:34PM 38.0019 -89.9431 331° Northwest 320 368 15,400 -2,520 Descending FAA TRACON SMA TRACON (SMA)
06:34PM 38.0272 -89.9564 337° Northwest 319 367 14,700 -2,400 Descending FAA TRACON SMA TRACON (SMA)
06:34PM 38.0578 -89.9758 333° Northwest 318 366 13,800 -2,400 Descending FAA TRACON SMA TRACON (SMA)
06:35PM 38.0828 -89.9892 337° Northwest 316 364 13,100 -2,220 Descending FAA TRACON SMA TRACON (SMA)
06:35PM 38.1131 -90.0067 336° Northwest 312 359 12,300 -2,160 Descending FAA TRACON SMA TRACON (SMA)
06:35PM 38.1394 -90.0136 348° North 313 360 11,700 -1,860 Descending FAA TRACON SMA TRACON (SMA)
06:36PM 38.1658 -90.0183 352° North 311 358 11,100 -1,980 Descending FAA TRACON SMA TRACON (SMA)
06:36PM 38.1975 -90.0283 346° North 308 354 10,300 -1,260 Descending FAA TRACON SMA TRACON (SMA)
06:36PM 38.2294 -90.0319 355° North 300 345 10,200 -180 Descending FAA TRACON SMA TRACON (SMA)
06:37PM 38.2469 -90.0364 349° North 288 331 10,200 -720 Level FAA TRACON SMA TRACON (SMA)
06:37PM 38.2692 -90.0411 351° North 269 310 9,800 -1,440 Descending FAA TRACON SMA TRACON (SMA)
06:37PM 38.2964 -90.0483 348° North 262 302 9,300 -1,500 Descending FAA TRACON SMA TRACON (SMA)
06:38PM 38.3194 -90.0525 352° North 265 305 8,800 -1,500 Descending FAA TRACON SMA TRACON (SMA)
06:38PM 38.3472 -90.0594 349° North 267 307 8,300 -1,200 Descending FAA TRACON SMA TRACON (SMA)
06:38PM 38.3706 -90.0633 353° North 268 308 8,000 -480 Descending FAA TRACON SMA TRACON (SMA)
06:39PM 38.3919 -90.0681 350° North 260 299 8,000  Level FAA TRACON SMA TRACON (SMA)
06:39PM 38.4122 -90.0722 351° North 248 285 8,000 -300 Level FAA TRACON SMA TRACON (SMA)
06:39PM 38.4358 -90.0783 349° North 228 262 7,800 -780 Descending FAA TRACON SMA TRACON (SMA)
06:40PM 38.4544 -90.0825 350° North 222 255 7,500 -900 Descending FAA TRACON SMA TRACON (SMA)
06:40PM 38.4772 -90.0869 351° North 218 251 7,200 -1,200 Descending FAA TRACON SMA TRACON (SMA)
06:40PM 38.4953 -90.0917 348° North 214 246 6,700 -1,740 Descending FAA TRACON SMA TRACON (SMA)
06:41PM 38.5136 -90.0950 352° North 215 247 6,100 -1,560 Descending FAA TRACON SMA TRACON (SMA)
06:41PM 38.5317 -90.0997 348° North 215 247 5,700 -1,680 Descending FAA TRACON SMA TRACON (SMA)
06:41PM 38.5544 -90.1044 351° North 216 249 5,000 -1,500 Descending FAA TRACON SMA TRACON (SMA)
06:42PM 38.5725 -90.1081 351° North 218 251 4,700 -1,080 Descending FAA TRACON SMA TRACON (SMA)
06:42PM 38.5950 -90.1147 347° North 213 245 4,300 -1,080 Descending FAA TRACON SMA TRACON (SMA)
06:42PM 38.6114 -90.1222 340° North 208 239 4,000 -840 Descending FAA TRACON SMA TRACON (SMA)
06:43PM 38.6444 -90.1367 341° North 202 232 3,500 -840 Descending FAA TRACON SMA TRACON (SMA)
06:43PM 38.6617 -90.1483 332° Northwest 187 215 3,200 -900 Descending FAA TRACON SMA TRACON (SMA)
06:44PM 38.6728 -90.1614 317° Northwest 178 205 2,900 -1,080 Descending FAA TRACON SMA TRACON (SMA)
06:44PM 38.6825 -90.1808 303° West 168 193 2,500 -1,080 Descending FAA TRACON SMA TRACON (SMA)
06:44PM 38.6897 -90.1953 303° West 159 183 2,200 -780 Descending FAA TRACON SMA TRACON (SMA)
06:45PM 38.6958 -90.2081 302° West 144 166 2,000 -660 Descending FAA TRACON SMA TRACON (SMA)
06:45PM 38.7019 -90.2200 303° West 132 152 1,800 -780 Descending FAA TRACON SMA TRACON (SMA)
06:45PM 38.7089 -90.2344 302° West 125 144 1,500 -780 Descending FAA TRACON SMA TRACON (SMA)
06:46PM 38.7150 -90.2464 303° West 128 147 1,300 -780 Descending FAA TRACON SMA TRACON (SMA)
06:46PM 38.7225 -90.2617 302° West 132 152 1,000 -780 Descending FAA TRACON SMA TRACON (SMA)
06:46PM 38.7283 -90.2736 302° West 129 148 800 -660 Descending FAA TRACON SMA TRACON (SMA)
06:47PM 38.7328 -90.2825 303° West 128 147 600 -660 Descending FAA TRACON SMA TRACON (SMA)
06:49PM 38.7487 -90.3700 275° West  Level Estimated
06:56PM 38.7487 -90.3700 90° East  Level Estimated